createdAt,value
2022-11-24T00:01:12.797Z,7.90
2022-11-24T00:03:40.591Z,7.80
2022-11-24T00:06:09.979Z,7.80
2022-11-24T00:08:38.289Z,7.80
2022-11-24T00:11:06.550Z,7.80
2022-11-24T00:13:35.874Z,7.80
2022-11-24T00:16:10.383Z,7.80
2022-11-24T00:18:38.504Z,7.80
2022-11-24T00:21:06.307Z,7.90
2022-11-24T00:23:34.083Z,7.90
2022-11-24T00:26:05.917Z,8.00
2022-11-24T00:28:35.356Z,8.10
2022-11-24T00:31:03.131Z,8.10
2022-11-24T00:33:30.917Z,8.10
2022-11-24T00:35:59.529Z,8.10
2022-11-24T00:38:27.280Z,8.10
2022-11-24T00:40:55.141Z,8.10
2022-11-24T00:43:22.827Z,8.10
2022-11-24T00:45:51.933Z,8.00
2022-11-24T00:48:32.313Z,8.00
2022-11-24T00:51:00.964Z,8.00
2022-11-24T00:53:28.859Z,8.00
2022-11-24T00:55:56.670Z,7.90
2022-11-24T00:58:25.073Z,8.00
2022-11-24T01:00:54.294Z,8.00
2022-11-24T01:03:22.569Z,8.00
2022-11-24T01:05:50.254Z,8.00
2022-11-24T01:08:18.081Z,8.10
2022-11-24T01:10:45.781Z,8.10
2022-11-24T01:13:13.506Z,8.10
2022-11-24T01:15:41.306Z,8.30
2022-11-24T01:18:10.766Z,8.30
2022-11-24T01:20:38.522Z,8.20
2022-11-24T01:23:06.225Z,8.30
2022-11-24T01:25:33.934Z,8.40
2022-11-24T01:28:01.981Z,8.40
2022-11-24T01:30:29.715Z,8.50
2022-11-24T01:32:57.542Z,8.50
2022-11-24T01:35:26.614Z,8.50
2022-11-24T01:37:54.321Z,8.50
2022-11-24T01:40:22.148Z,8.50
2022-11-24T01:42:50.930Z,8.50
2022-11-24T01:45:30.920Z,8.50
2022-11-24T01:47:58.876Z,8.50
2022-11-24T01:50:28.097Z,8.60
2022-11-24T01:52:56.554Z,8.60
2022-11-24T01:55:26.680Z,8.60
2022-11-24T01:57:57.081Z,8.60
2022-11-24T02:00:24.747Z,8.70
2022-11-24T02:02:53.617Z,8.70
2022-11-24T02:05:24.164Z,8.70
2022-11-24T02:07:55.036Z,8.70
2022-11-24T02:10:23.467Z,8.70
2022-11-24T02:12:52.646Z,8.70
2022-11-24T02:15:21.013Z,8.70
2022-11-24T02:17:48.682Z,8.70
2022-11-24T02:20:16.958Z,8.70
2022-11-24T02:22:48.701Z,8.80
2022-11-24T02:25:22.189Z,8.80
2022-11-24T02:27:54.037Z,8.80
2022-11-24T02:30:22.031Z,8.80
2022-11-24T02:32:50.024Z,8.80
2022-11-24T02:35:17.984Z,8.90
2022-11-24T02:37:45.763Z,8.90
2022-11-24T02:40:15.816Z,8.90
2022-11-24T02:42:45.517Z,9.00
2022-11-24T02:45:16.416Z,9.00
2022-11-24T02:47:45.145Z,8.90
2022-11-24T02:50:12.925Z,9.00
2022-11-24T02:52:40.842Z,8.90
2022-11-24T02:55:08.890Z,8.80
2022-11-24T02:57:36.642Z,8.80
2022-11-24T03:00:04.603Z,8.80
2022-11-24T03:02:33.658Z,8.80
2022-11-24T03:05:01.419Z,8.70
2022-11-24T03:07:29.143Z,8.70
2022-11-24T03:09:56.866Z,8.70
2022-11-24T03:12:24.644Z,8.70
2022-11-24T03:14:52.339Z,8.60
2022-11-24T03:17:20.018Z,8.60
2022-11-24T03:19:49.041Z,8.60
2022-11-24T03:22:16.883Z,8.70
2022-11-24T03:24:44.587Z,8.60
2022-11-24T03:27:12.280Z,8.70
2022-11-24T03:29:39.987Z,8.70
2022-11-24T03:32:07.670Z,8.60
2022-11-24T03:34:35.515Z,8.60
2022-11-24T03:37:04.828Z,8.60
2022-11-24T03:39:32.501Z,8.60
2022-11-24T03:42:00.210Z,8.60
2022-11-24T03:44:28.009Z,8.60
2022-11-24T03:46:55.695Z,8.60
2022-11-24T03:49:23.389Z,8.60
2022-11-24T03:51:51.086Z,8.60
2022-11-24T03:54:20.181Z,8.50
2022-11-24T03:56:47.870Z,8.50
2022-11-24T03:59:15.616Z,8.40
2022-11-24T04:01:43.498Z,8.50
2022-11-24T04:04:11.422Z,8.50
2022-11-24T04:06:39.117Z,8.50
2022-11-24T04:09:07.345Z,8.50
2022-11-24T04:11:53.912Z,8.60
2022-11-24T04:14:21.666Z,8.60
2022-11-24T04:16:49.369Z,8.60
2022-11-24T04:19:17.165Z,8.70
2022-11-24T04:21:44.894Z,8.80
2022-11-24T04:24:12.644Z,8.70
2022-11-24T04:26:41.812Z,8.80
2022-11-24T04:29:10.313Z,8.80
2022-11-24T04:31:38.064Z,8.90
2022-11-24T04:34:05.819Z,8.90
2022-11-24T04:36:33.498Z,9.00
2022-11-24T04:39:24.246Z,9.00
2022-11-24T04:41:50.224Z,9.00
2022-11-24T04:44:18.025Z,9.00
2022-11-24T04:46:45.761Z,9.00
2022-11-24T04:49:13.599Z,9.10
2022-11-24T04:51:41.754Z,9.10
2022-11-24T04:54:11.206Z,9.10
2022-11-24T04:56:39.287Z,9.00
2022-11-24T04:59:08.804Z,9.20
2022-11-24T05:01:36.667Z,9.20
2022-11-24T05:04:04.539Z,9.20
2022-11-24T05:06:33.118Z,9.30
2022-11-24T05:09:00.802Z,9.40
2022-11-24T05:11:28.473Z,9.40
2022-11-24T05:13:56.164Z,9.40
2022-11-24T05:16:25.350Z,9.40
2022-11-24T05:18:53.129Z,9.20
2022-11-24T05:21:20.848Z,9.20
2022-11-24T05:23:48.557Z,9.20
2022-11-24T05:26:16.281Z,9.30
2022-11-24T05:28:43.966Z,9.30
2022-11-24T05:31:11.712Z,9.30
2022-11-24T05:33:40.797Z,9.20
2022-11-24T05:36:08.737Z,9.20
2022-11-24T05:38:36.526Z,9.10
2022-11-24T05:41:04.754Z,8.90
2022-11-24T05:43:32.542Z,9.00
2022-11-24T05:46:01.183Z,9.00
2022-11-24T05:48:28.966Z,8.80
2022-11-24T05:50:58.442Z,8.60
2022-11-24T05:53:26.949Z,8.80
2022-11-24T05:55:54.826Z,8.90
2022-11-24T05:58:22.518Z,8.90
2022-11-24T06:00:50.270Z,9.00
2022-11-24T06:03:18.003Z,8.90
2022-11-24T06:05:46.909Z,9.00
2022-11-24T06:08:15.998Z,9.10
2022-11-24T06:10:43.678Z,9.20
2022-11-24T06:13:11.448Z,9.30
2022-11-24T06:15:40.693Z,9.30
2022-11-24T06:18:08.591Z,9.40
2022-11-24T06:20:36.375Z,9.40
2022-11-24T06:23:04.115Z,9.50
2022-11-24T06:25:33.144Z,9.60
2022-11-24T06:28:03.685Z,9.60
2022-11-24T06:30:31.394Z,9.60
2022-11-24T06:32:59.093Z,9.60
2022-11-24T06:35:26.786Z,9.60
2022-11-24T06:37:54.455Z,9.50
2022-11-24T06:40:22.157Z,9.40
2022-11-24T06:42:54.199Z,9.40
2022-11-24T06:45:21.962Z,9.20
2022-11-24T06:47:49.704Z,9.20
2022-11-24T06:50:17.438Z,9.10
2022-11-24T06:52:45.127Z,8.90
2022-11-24T06:55:13.080Z,8.80
2022-11-24T06:57:40.757Z,8.90
2022-11-24T07:00:10.752Z,8.80
2022-11-24T07:02:44.108Z,8.90
2022-11-24T07:05:13.482Z,8.90
2022-11-24T07:07:41.238Z,8.90
2022-11-24T07:10:09.303Z,9.10
2022-11-24T07:12:37.029Z,9.20
2022-11-24T07:15:04.994Z,9.40
2022-11-24T07:17:36.171Z,9.40
2022-11-24T07:20:04.417Z,9.40
2022-11-24T07:22:32.133Z,9.30
2022-11-24T07:24:59.808Z,9.10
2022-11-24T07:27:27.734Z,9.00
2022-11-24T07:29:55.407Z,8.80
2022-11-24T07:32:23.113Z,8.60
2022-11-24T07:34:52.221Z,8.50
2022-11-24T07:37:19.931Z,8.50
2022-11-24T07:39:47.643Z,8.50
2022-11-24T07:42:15.349Z,8.50
2022-11-24T07:44:43.050Z,8.50
2022-11-24T07:47:10.716Z,8.50
2022-11-24T07:49:38.389Z,8.50
2022-11-24T07:52:08.394Z,8.50
2022-11-24T07:54:36.343Z,8.40
2022-11-24T07:57:04.348Z,8.40
2022-11-24T07:59:32.047Z,8.30
2022-11-24T08:01:59.804Z,8.30
2022-11-24T08:04:27.640Z,8.30
2022-11-24T08:06:55.379Z,8.40
2022-11-24T08:09:24.433Z,8.40
2022-11-24T08:11:52.451Z,8.40
2022-11-24T08:14:20.118Z,8.40
2022-11-24T08:16:47.874Z,8.30
2022-11-24T08:19:15.612Z,8.30
2022-11-24T08:21:43.445Z,8.30
2022-11-24T08:24:11.181Z,8.30
2022-11-24T08:26:40.246Z,8.30
2022-11-24T08:29:07.985Z,8.30
2022-11-24T08:31:36.305Z,8.30
2022-11-24T08:34:04.801Z,8.30
2022-11-24T08:36:33.013Z,8.30
2022-11-24T08:39:01.175Z,8.40
2022-11-24T08:41:29.568Z,8.40
2022-11-24T08:43:58.899Z,8.50
2022-11-24T08:46:26.625Z,8.50
2022-11-24T08:48:55.147Z,8.60
2022-11-24T08:51:24.089Z,8.80
2022-11-24T08:53:54.638Z,8.90
2022-11-24T08:56:22.315Z,8.90
2022-11-24T08:58:50.050Z,8.90
2022-11-24T09:01:19.149Z,8.90
2022-11-24T09:03:50.683Z,9.00
2022-11-24T09:06:20.071Z,9.00
2022-11-24T09:08:48.487Z,9.00
2022-11-24T09:11:17.342Z,9.10
2022-11-24T09:13:45.115Z,9.20
2022-11-24T09:16:13.875Z,9.20
2022-11-24T09:18:43.163Z,9.30
2022-11-24T09:21:11.654Z,9.40
2022-11-24T09:23:39.609Z,9.50
2022-11-24T09:26:07.732Z,9.60
2022-11-24T09:28:35.862Z,9.70
2022-11-24T09:31:03.909Z,10.20
2022-11-24T09:33:32.432Z,10.80
2022-11-24T09:36:01.745Z,11.30
2022-11-24T09:38:29.630Z,11.70
2022-11-24T09:40:57.570Z,11.90
2022-11-24T09:43:28.706Z,12.10
2022-11-24T09:46:05.565Z,12.10
2022-11-24T09:48:36.371Z,12.20
2022-11-24T09:51:06.367Z,12.00
2022-11-24T09:53:38.608Z,11.80
2022-11-24T09:56:21.843Z,11.50
2022-11-24T09:58:50.603Z,11.30
2022-11-24T10:01:19.645Z,11.30
2022-11-24T10:03:49.045Z,11.00
2022-11-24T10:06:25.792Z,10.80
2022-11-24T10:09:08.512Z,10.70
2022-11-24T10:11:39.030Z,10.70
2022-11-24T10:14:21.186Z,10.90
2022-11-24T10:16:54.044Z,11.50
2022-11-24T10:19:36.509Z,12.30
2022-11-24T10:22:14.200Z,12.50
2022-11-24T10:24:55.960Z,12.70
2022-11-24T10:27:27.409Z,12.70
2022-11-24T10:29:55.424Z,12.60
2022-11-24T10:32:26.196Z,12.30
2022-11-24T10:34:55.067Z,12.20
2022-11-24T10:37:27.170Z,12.10
2022-11-24T10:40:00.528Z,11.90
2022-11-24T10:42:29.328Z,11.80
2022-11-24T10:45:00.183Z,11.80
2022-11-24T10:47:27.866Z,11.70
2022-11-24T10:49:58.708Z,11.80
2022-11-24T10:52:29.446Z,12.00
2022-11-24T10:54:58.202Z,12.00
2022-11-24T10:57:30.298Z,11.90
2022-11-24T10:59:58.041Z,11.90
2022-11-24T11:02:30.024Z,11.80
2022-11-24T11:04:57.933Z,11.80
2022-11-24T11:07:26.510Z,12.00
2022-11-24T11:10:18.909Z,12.50
2022-11-24T11:12:46.625Z,13.20
2022-11-24T11:15:22.573Z,14.00
2022-11-24T11:17:52.201Z,14.30
2022-11-24T11:20:22.236Z,14.80
2022-11-24T11:22:50.913Z,14.90
2022-11-24T11:25:22.044Z,14.70
2022-11-24T11:27:49.922Z,14.80
2022-11-24T11:36:10.233Z,14.50
2022-11-24T11:38:39.122Z,15.00
2022-11-24T11:41:11.774Z,15.00
2022-11-24T11:43:40.787Z,15.20
2022-11-24T11:46:12.482Z,14.80
2022-11-24T11:48:44.075Z,14.90
2022-11-24T11:51:30.841Z,15.00
2022-11-24T11:54:05.287Z,15.30
2022-11-24T11:56:36.209Z,15.40
2022-11-24T11:59:22.147Z,15.00
2022-11-24T12:01:58.720Z,14.70
2022-11-24T12:04:32.266Z,14.30
2022-11-24T12:07:02.548Z,14.00
2022-11-24T12:09:37.802Z,13.60
2022-11-24T12:12:14.984Z,13.20
2022-11-24T12:14:45.919Z,12.90
2022-11-24T12:17:21.845Z,12.80
2022-11-24T12:19:58.205Z,12.70
2022-11-24T12:22:32.906Z,12.70
2022-11-24T12:25:04.065Z,12.90
2022-11-24T12:27:40.038Z,13.00
2022-11-24T12:30:11.966Z,13.10
2022-11-24T12:32:52.026Z,13.20
2022-11-24T12:35:23.351Z,13.30
2022-11-24T12:37:56.214Z,13.50
2022-11-24T12:40:28.802Z,13.40
2022-11-24T12:43:00.675Z,13.30
2022-11-24T12:45:32.980Z,13.10
2022-11-24T12:48:15.630Z,13.00
2022-11-24T12:50:44.829Z,12.90
2022-11-24T12:53:14.541Z,12.70
2022-11-24T12:55:42.483Z,12.50
2022-11-24T12:58:14.931Z,12.40
2022-11-24T13:00:48.427Z,12.30
2022-11-24T13:03:25.195Z,12.30
2022-11-24T13:05:54.363Z,12.30
2022-11-24T13:08:24.239Z,12.30
2022-11-24T13:10:57.130Z,12.40
2022-11-24T13:13:29.127Z,12.40
2022-11-24T13:19:08.355Z,12.30
2022-11-24T13:21:50.186Z,12.40
2022-11-24T13:24:25.690Z,12.30
2022-11-24T13:26:54.399Z,12.30
2022-11-24T13:29:34.355Z,12.10
2022-11-24T13:32:20.980Z,12.10
2022-11-24T13:34:55.577Z,12.00
2022-11-24T13:37:45.992Z,11.80
2022-11-24T13:40:29.830Z,12.00
2022-11-24T13:43:16.293Z,11.90
2022-11-24T13:45:52.290Z,11.90
2022-11-24T13:48:38.305Z,11.90
2022-11-24T13:51:14.661Z,12.00
2022-11-24T13:53:43.346Z,12.00
2022-11-24T13:56:22.353Z,12.00
2022-11-24T13:58:50.732Z,11.90
2022-11-24T14:01:21.235Z,11.80
2022-11-24T14:07:02.502Z,11.80
2022-11-24T14:09:36.418Z,11.70
2022-11-24T14:12:07.677Z,11.60
2022-11-24T14:14:35.597Z,11.40
2022-11-24T14:17:08.292Z,11.40
2022-11-24T14:19:35.984Z,11.30
2022-11-24T14:22:03.682Z,11.20
2022-11-24T14:24:38.117Z,11.10
2022-11-24T14:27:13.442Z,11.10
2022-11-24T14:29:54.185Z,11.00
2022-11-24T14:32:23.599Z,11.10
2022-11-24T14:34:52.085Z,11.10
2022-11-24T14:37:20.088Z,11.10
2022-11-24T14:39:47.900Z,11.10
2022-11-24T14:42:18.025Z,11.00
2022-11-24T14:44:47.877Z,10.90
2022-11-24T14:47:18.113Z,10.90
2022-11-24T14:49:47.170Z,10.80
2022-11-24T14:52:16.374Z,10.80
2022-11-24T14:54:48.402Z,10.80
2022-11-24T14:57:24.317Z,10.60
2022-11-24T15:00:05.538Z,10.60
2022-11-24T15:02:40.790Z,10.50
2022-11-24T15:05:10.113Z,10.50
2022-11-24T15:07:39.229Z,10.40
2022-11-24T15:10:08.190Z,10.40
2022-11-24T15:12:38.358Z,10.40
2022-11-24T15:15:07.705Z,10.30
2022-11-24T15:17:35.406Z,10.30
2022-11-24T15:20:04.433Z,10.20
2022-11-24T15:22:37.403Z,10.20
2022-11-24T15:25:20.035Z,10.20
2022-11-24T15:27:47.678Z,10.00
2022-11-24T15:30:15.670Z,10.00
2022-11-24T15:32:49.302Z,9.90
2022-11-24T15:35:16.994Z,9.80
2022-11-24T15:37:47.851Z,9.80
2022-11-24T15:40:15.802Z,9.80
2022-11-24T15:42:44.338Z,9.70
2022-11-24T15:45:12.099Z,9.60
2022-11-24T15:47:39.772Z,9.50
2022-11-24T15:50:08.188Z,9.60
2022-11-24T15:52:36.246Z,9.50
2022-11-24T15:55:05.774Z,9.50
2022-11-24T15:57:33.929Z,9.40
2022-11-24T16:00:01.630Z,9.30
2022-11-24T16:02:29.390Z,9.30
2022-11-24T16:04:57.098Z,9.30
2022-11-24T16:07:24.858Z,9.20
2022-11-24T16:09:52.762Z,9.20
2022-11-24T16:12:21.778Z,9.10
2022-11-24T16:14:49.466Z,9.00
2022-11-24T16:17:17.178Z,9.00
2022-11-24T16:19:45.227Z,8.90
2022-11-24T16:22:12.910Z,8.90
2022-11-24T16:24:40.739Z,8.80
2022-11-24T16:27:08.436Z,8.80
2022-11-24T16:29:38.636Z,8.80
2022-11-24T16:32:06.945Z,8.70
2022-11-24T16:34:34.930Z,8.60
2022-11-24T16:37:02.720Z,8.60
2022-11-24T16:39:30.443Z,8.60
2022-11-24T16:41:58.112Z,8.60
2022-11-24T16:44:25.846Z,8.50
2022-11-24T16:46:54.889Z,8.50
2022-11-24T16:49:22.594Z,8.50
2022-11-24T16:51:50.266Z,8.50
2022-11-24T16:54:18.167Z,8.30
2022-11-24T16:56:45.830Z,8.20
2022-11-24T16:59:13.508Z,8.20
2022-11-24T17:01:41.382Z,8.20
2022-11-24T17:04:12.751Z,8.10
2022-11-24T17:06:40.829Z,8.10
2022-11-24T17:09:09.093Z,8.00
2022-11-24T17:11:36.782Z,7.90
2022-11-24T17:14:04.443Z,7.80
2022-11-24T17:16:32.609Z,7.70
2022-11-24T17:19:00.296Z,7.70
2022-11-24T17:21:29.340Z,7.60
2022-11-24T17:23:58.153Z,7.50
2022-11-24T17:26:26.301Z,7.50
2022-11-24T17:28:54.091Z,7.50
2022-11-24T17:31:22.960Z,7.40
2022-11-24T17:33:51.311Z,7.40
2022-11-24T17:36:18.996Z,7.40
2022-11-24T17:38:49.442Z,7.40
2022-11-24T17:41:17.149Z,7.30
2022-11-24T17:43:44.816Z,7.30
2022-11-24T17:46:12.638Z,7.20
2022-11-24T17:48:40.662Z,7.20
2022-11-24T17:51:09.099Z,7.20
2022-11-24T17:53:37.368Z,7.20
2022-11-24T17:56:06.904Z,7.10
2022-11-24T17:58:41.304Z,7.00
2022-11-24T18:01:10.849Z,6.90
2022-11-24T18:03:39.262Z,6.90
2022-11-24T18:06:07.637Z,6.90
2022-11-24T18:08:35.888Z,6.90
2022-11-24T18:11:04.207Z,6.90
2022-11-24T18:13:54.837Z,6.80
2022-11-24T18:16:21.013Z,6.80
2022-11-24T18:18:50.957Z,6.80
2022-11-24T18:21:18.880Z,6.80
2022-11-24T18:23:47.217Z,6.90
2022-11-24T18:26:16.073Z,6.90
2022-11-24T18:28:45.700Z,7.00
2022-11-24T18:31:14.330Z,7.00
2022-11-24T18:33:42.977Z,7.00
2022-11-24T18:36:12.888Z,7.00
2022-11-24T18:38:40.923Z,7.10
2022-11-24T18:41:08.753Z,7.10
2022-11-24T18:43:38.078Z,7.20
2022-11-24T18:46:08.537Z,7.20
2022-11-24T18:48:36.655Z,7.20
2022-11-24T18:51:04.781Z,7.20
2022-11-24T18:53:32.488Z,7.30
2022-11-24T18:56:01.232Z,7.30
2022-11-24T18:58:29.927Z,7.30
2022-11-24T19:01:06.855Z,7.30
2022-11-24T19:03:37.218Z,7.30
2022-11-24T19:06:05.248Z,7.20
2022-11-24T19:08:38.705Z,7.30
2022-11-24T19:11:06.913Z,7.30
2022-11-24T19:13:34.661Z,7.20
2022-11-24T19:16:02.379Z,7.30
2022-11-24T19:18:30.250Z,7.30
2022-11-24T19:20:59.294Z,7.20
2022-11-24T19:23:26.981Z,7.30
2022-11-24T19:25:54.659Z,7.20
2022-11-24T19:28:22.320Z,7.30
2022-11-24T19:30:50.144Z,7.20
2022-11-24T19:33:18.761Z,7.30
2022-11-24T19:35:46.450Z,7.30
2022-11-24T19:38:15.861Z,7.40
2022-11-24T19:40:43.550Z,7.40
2022-11-24T19:43:11.245Z,7.40
2022-11-24T19:45:43.834Z,7.30
2022-11-24T19:48:11.599Z,7.30
2022-11-24T19:50:39.281Z,7.30
2022-11-24T19:53:07.074Z,7.20
2022-11-24T19:55:36.079Z,7.10
2022-11-24T19:58:03.745Z,7.10
2022-11-24T20:00:32.152Z,7.10
2022-11-24T20:03:00.095Z,7.00
2022-11-24T20:05:27.858Z,7.00
2022-11-24T20:07:55.586Z,6.90
2022-11-24T20:10:23.323Z,6.90
2022-11-24T20:12:52.344Z,6.90
2022-11-24T20:15:20.578Z,6.80
2022-11-24T20:17:48.253Z,6.80
2022-11-24T20:20:16.005Z,6.80
2022-11-24T20:22:43.700Z,6.80
2022-11-24T20:25:11.476Z,6.70
2022-11-24T20:27:39.176Z,6.70
2022-11-24T20:30:09.456Z,6.70
2022-11-24T20:32:37.170Z,6.70
2022-11-24T20:35:05.100Z,6.70
2022-11-24T20:37:33.116Z,6.70
2022-11-24T20:40:02.938Z,6.80
2022-11-24T20:42:31.387Z,6.80
2022-11-24T20:45:00.803Z,6.90
2022-11-24T20:47:30.770Z,6.90
2022-11-24T20:49:58.443Z,6.90
2022-11-24T20:52:26.152Z,6.90
2022-11-24T20:54:53.981Z,6.90
2022-11-24T20:57:21.655Z,7.00
2022-11-24T20:59:50.025Z,7.00
2022-11-24T21:02:17.769Z,7.00
2022-11-24T21:04:46.856Z,7.00
2022-11-24T21:07:15.669Z,7.00
2022-11-24T21:09:43.415Z,7.10
2022-11-24T21:12:11.088Z,7.00
2022-11-24T21:14:38.858Z,7.00
2022-11-24T21:17:06.624Z,7.00
2022-11-24T21:19:34.351Z,7.00
2022-11-24T21:22:03.419Z,7.00
2022-11-24T21:24:31.446Z,7.00
2022-11-24T21:26:59.103Z,7.10
2022-11-24T21:29:26.829Z,7.00
2022-11-24T21:31:54.564Z,7.00
2022-11-24T21:34:22.296Z,7.00
2022-11-24T21:36:50.037Z,7.00
2022-11-24T21:39:19.108Z,7.00
2022-11-24T21:41:47.558Z,6.90
2022-11-24T21:44:15.717Z,7.00
2022-11-24T21:46:49.721Z,7.00
2022-11-24T21:49:22.116Z,7.00
2022-11-24T21:51:55.002Z,7.00
2022-11-24T21:54:24.440Z,7.00
2022-11-24T21:56:52.130Z,6.90
2022-11-24T21:59:20.851Z,6.90
2022-11-24T22:01:48.734Z,6.90
2022-11-24T22:04:16.551Z,6.90
2022-11-24T22:06:45.040Z,6.90
2022-11-24T22:09:17.723Z,6.90
2022-11-24T22:11:49.015Z,6.90
2022-11-24T22:14:16.863Z,6.90
2022-11-24T22:16:44.573Z,6.80
2022-11-24T22:19:12.252Z,6.90
2022-11-24T22:21:39.941Z,6.80
2022-11-24T22:24:08.054Z,6.70
2022-11-24T22:26:35.746Z,6.70
2022-11-24T22:29:04.830Z,6.70
2022-11-24T22:31:33.345Z,6.70
2022-11-24T22:34:01.504Z,6.60
2022-11-24T22:36:30.293Z,6.60
2022-11-24T22:38:58.855Z,6.60
2022-11-24T22:41:26.838Z,6.50
2022-11-24T22:43:54.585Z,6.50
2022-11-24T22:46:24.509Z,6.40
2022-11-24T22:48:53.194Z,6.40
2022-11-24T22:51:21.866Z,6.40
2022-11-24T22:53:50.101Z,6.30
2022-11-24T22:56:18.264Z,6.20
2022-11-24T22:58:46.298Z,6.20
2022-11-24T23:01:14.781Z,6.10
2022-11-24T23:03:44.273Z,6.00
2022-11-24T23:06:12.825Z,6.00
2022-11-24T23:08:40.513Z,5.90
2022-11-24T23:11:08.763Z,5.90
2022-11-24T23:13:36.480Z,5.80
2022-11-24T23:16:05.420Z,5.80
2022-11-24T23:18:33.513Z,5.70
2022-11-24T23:21:06.525Z,5.70
2022-11-24T23:23:34.650Z,5.60
2022-11-24T23:26:02.470Z,5.60
2022-11-24T23:28:39.741Z,5.60
2022-11-24T23:31:08.249Z,5.70
2022-11-24T23:33:36.525Z,5.60
2022-11-24T23:36:06.094Z,5.70
2022-11-24T23:38:35.161Z,5.70
2022-11-24T23:41:04.487Z,5.70
2022-11-24T23:43:32.310Z,5.60
2022-11-24T23:46:02.518Z,5.60
2022-11-24T23:48:30.389Z,5.70
2022-11-24T23:50:58.461Z,5.70
2022-11-24T23:53:26.141Z,5.70
2022-11-24T23:55:56.018Z,5.60
2022-11-24T23:58:23.772Z,5.50
